Time;durP1;ratioP1;P1;durP2;ratioP2;P2;SDS_P1;SDS_P2;PMS_P1;PMS_P2;Temp;Humidity;BMP_temperature;BMP_pressure;BME280_temperature;BME280_humidity;BME280_pressure;Samples;Min_cycle;Max_cycle;Signal;HPM_P1;HPM_P2
2022/01/14 00:02:18;;;;;;;19.55;10.75;;;;;;;;;;6224409;22;20090;-88
2022/01/14 00:04:44;;;;;;;22.42;11.52;;;;;;;;;;6225512;22;20020;-88
2022/01/14 00:07:10;;;;;;;23.33;10.32;;;;;;;;;;6251147;22;20027;-88
2022/01/14 00:09:38;;;;;;;18.25;10.35;;;;;;;;;;6225668;22;20091;-88
2022/01/14 00:12:10;;;;;;;13.02;6.63;;;;;;;;;;6251352;22;20045;-88
2022/01/14 00:14:39;;;;;;;15.73;7.90;;;;;;;;;;6225349;22;20034;-88
2022/01/14 00:17:06;;;;;;;20.13;8.98;;;;;;;;;;6225722;22;20022;-88
2022/01/14 00:19:32;;;;;;;25.50;10.85;;;;;;;;;;6225471;22;20015;-88
2022/01/14 00:22:03;;;;;;;27.25;11.48;;;;;;;;;;6225284;22;20468;-88
2022/01/14 00:31:38;;;;;;;26.35;11.93;;;;;;;;;;6234711;23;20070;-89
2022/01/14 00:33:05;;;;;;;20.63;10.05;;;;;;;;;;6250984;22;20429;-88
2022/01/14 00:35:32;;;;;;;18.15;10.43;;;;;;;;;;6227159;22;20022;-88
2022/01/14 00:37:58;;;;;;;32.28;12.20;;;;;;;;;;6251225;22;20027;-88
2022/01/14 00:40:24;;;;;;;22.85;11.25;;;;;;;;;;6251532;22;20011;-88
2022/01/14 00:42:51;;;;;;;24.73;11.23;;;;;;;;;;6250519;22;20081;-88
2022/01/14 00:45:17;;;;;;;23.58;12.02;;;;;;;;;;6249195;22;20016;-88
2022/01/14 00:47:44;;;;;;;14.48;8.45;;;;;;;;;;6225422;22;20057;-89
2022/01/14 00:50:12;;;;;;;25.35;11.95;;;;;;;;;;6250997;22;20404;-89
2022/01/14 00:52:39;;;;;;;37.58;11.18;;;;;;;;;;6226903;22;20051;-88
2022/01/14 00:55:06;;;;;;;18.63;9.38;;;;;;;;;;6226292;22;20026;-89
2022/01/14 01:00:17;;;;;;;20.00;11.35;;;;;;;;;;6250524;22;20456;-88
2022/01/14 01:02:43;;;;;;;28.92;11.20;;;;;;;;;;6224859;22;20016;-88
2022/01/14 01:05:12;;;;;;;33.40;11.75;;;;;;;;;;6225430;22;20098;-88
2022/01/14 01:07:39;;;;;;;23.95;11.63;;;;;;;;;;6225466;22;20095;-88
2022/01/14 01:10:06;;;;;;;28.88;11.98;;;;;;;;;;6225021;22;20012;-89
2022/01/14 01:12:45;;;;;;;19.00;10.85;;;;;;;;;;6250997;22;20016;-89
2022/01/14 01:15:15;;;;;;;20.10;11.65;;;;;;;;;;6227895;22;20042;-88
2022/01/14 01:17:41;;;;;;;20.35;10.40;;;;;;;;;;6253084;22;20027;-88
2022/01/14 01:20:17;;;;;;;16.95;10.07;;;;;;;;;;6253134;22;20016;-88
2022/01/14 01:22:47;;;;;;;20.10;12.07;;;;;;;;;;6244779;22;20026;-89
2022/01/14 01:25:15;;;;;;;23.98;11.00;;;;;;;;;;6222120;23;20012;-88
2022/01/14 01:27:43;;;;;;;20.08;10.52;;;;;;;;;;6213857;23;20024;-88
2022/01/14 01:30:16;;;;;;;25.77;12.05;;;;;;;;;;6211936;22;20015;-88
2022/01/14 01:32:46;;;;;;;22.73;10.63;;;;;;;;;;6252772;22;20073;-88
2022/01/14 01:35:13;;;;;;;42.88;15.25;;;;;;;;;;6227273;22;20089;-88
2022/01/14 01:37:39;;;;;;;21.27;10.50;;;;;;;;;;6227442;22;20020;-88
2022/01/14 01:40:05;;;;;;;27.30;11.63;;;;;;;;;;6228479;22;20011;-88
2022/01/14 01:42:32;;;;;;;31.20;11.45;;;;;;;;;;6251757;22;20338;-88
2022/01/14 01:44:59;;;;;;;34.47;11.98;;;;;;;;;;6226953;22;20091;-88
2022/01/14 01:47:26;;;;;;;27.90;12.63;;;;;;;;;;6228275;22;20023;-88
2022/01/14 01:49:53;;;;;;;26.40;11.57;;;;;;;;;;6252509;22;20012;-89
2022/01/14 01:52:19;;;;;;;29.75;10.75;;;;;;;;;;6252673;22;20020;-89
2022/01/14 01:54:45;;;;;;;26.13;11.63;;;;;;;;;;6227190;22;20153;-88
2022/01/14 01:57:11;;;;;;;29.15;12.18;;;;;;;;;;6227929;22;20053;-88
2022/01/14 01:59:37;;;;;;;36.42;11.50;;;;;;;;;;6228294;22;20016;-88
2022/01/14 02:02:05;;;;;;;20.38;12.02;;;;;;;;;;6226423;22;20015;-88
2022/01/14 02:04:31;;;;;;;30.13;10.20;;;;;;;;;;6251843;22;20026;-88
2022/01/14 02:06:58;;;;;;;26.77;10.65;;;;;;;;;;6226881;22;20019;-88
2022/01/14 02:09:24;;;;;;;26.15;13.23;;;;;;;;;;6252114;22;20063;-89
2022/01/14 02:11:50;;;;;;;28.38;12.07;;;;;;;;;;6252089;22;20020;-88
2022/01/14 02:14:28;;;;;;;22.65;11.05;;;;;;;;;;6252224;22;20503;-88
2022/01/14 02:22:52;;;;;;;28.05;12.15;;;;;;;;;;6130877;23;20025;-88
2022/01/14 02:25:28;;;;;;;30.35;11.48;;;;;;;;;;6106216;23;20019;-88
2022/01/14 02:28:08;;;;;;;25.90;12.32;;;;;;;;;;6130634;23;20017;-88
2022/01/14 02:30:39;;;;;;;36.00;12.70;;;;;;;;;;6106232;23;20084;-88
2022/01/14 02:33:06;;;;;;;23.40;12.95;;;;;;;;;;6106164;23;20020;-88
2022/01/14 02:35:32;;;;;;;26.55;11.93;;;;;;;;;;6107073;23;20100;-88
2022/01/14 02:37:59;;;;;;;27.90;13.35;;;;;;;;;;6106779;23;20037;-88
2022/01/14 02:40:25;;;;;;;30.35;13.02;;;;;;;;;;6106561;23;20017;-89
2022/01/14 02:42:51;;;;;;;23.48;12.93;;;;;;;;;;6107553;23;20021;-88
2022/01/14 02:45:18;;;;;;;36.83;12.82;;;;;;;;;;6106147;23;20014;-88
2022/01/14 02:47:45;;;;;;;21.30;12.65;;;;;;;;;;6106611;23;20463;-89
2022/01/14 02:50:16;;;;;;;27.92;12.88;;;;;;;;;;6106464;23;20490;-89
2022/01/14 02:55:19;;;;;;;23.10;11.27;;;;;;;;;;6131070;23;20021;-89
2022/01/14 02:57:47;;;;;;;32.25;12.90;;;;;;;;;;6217836;22;20020;-88
2022/01/14 03:00:14;;;;;;;27.73;12.95;;;;;;;;;;6253401;22;20020;-94
2022/01/14 03:02:42;;;;;;;33.75;13.68;;;;;;;;;;6227342;22;20019;-95
2022/01/14 03:05:08;;;;;;;29.88;13.52;;;;;;;;;;6227486;22;20479;-93
2022/01/14 03:07:36;;;;;;;36.42;13.57;;;;;;;;;;6252859;22;20400;-93
2022/01/14 03:10:02;;;;;;;21.50;13.73;;;;;;;;;;6228767;22;20015;-93
2022/01/14 03:12:28;;;;;;;24.23;13.90;;;;;;;;;;6252731;22;20015;-93
2022/01/14 03:14:54;;;;;;;34.15;14.48;;;;;;;;;;6227353;22;20023;-94
2022/01/14 03:17:20;;;;;;;28.33;12.77;;;;;;;;;;6227093;22;20038;-93
2022/01/14 03:19:47;;;;;;;24.15;13.77;;;;;;;;;;6251947;22;20086;-94
2022/01/14 03:27:11;;;;;;;22.67;11.18;;;;;;;;;;6251943;22;20027;-94
2022/01/14 03:29:37;;;;;;;32.42;12.48;;;;;;;;;;6226592;22;20458;-94
2022/01/14 03:32:04;;;;;;;24.67;13.27;;;;;;;;;;6252113;22;20352;-93
2022/01/14 03:34:30;;;;;;;22.15;12.70;;;;;;;;;;6226209;22;20015;-94
2022/01/14 03:36:56;;;;;;;27.00;12.98;;;;;;;;;;6251866;22;20023;-94
2022/01/14 03:39:23;;;;;;;24.15;12.85;;;;;;;;;;6251990;22;20099;-94
2022/01/14 03:41:49;;;;;;;29.77;12.25;;;;;;;;;;6226254;22;20069;-95
2022/01/14 03:44:16;;;;;;;25.58;12.30;;;;;;;;;;6251776;22;20063;-92
2022/01/14 03:46:42;;;;;;;35.13;13.80;;;;;;;;;;6226453;22;20020;-92
2022/01/14 03:49:08;;;;;;;24.88;12.93;;;;;;;;;;6226294;22;20099;-93
2022/01/14 03:51:34;;;;;;;33.38;12.20;;;;;;;;;;6227811;22;20027;-91
2022/01/14 03:54:00;;;;;;;23.17;12.70;;;;;;;;;;6226555;22;20338;-93
2022/01/14 03:56:26;;;;;;;25.80;12.75;;;;;;;;;;6252784;22;20020;-93
2022/01/14 03:58:53;;;;;;;22.77;12.13;;;;;;;;;;6226952;22;20057;-92
2022/01/14 04:01:19;;;;;;;31.30;12.95;;;;;;;;;;6226490;22;20026;-92
2022/01/14 04:03:46;;;;;;;35.08;13.38;;;;;;;;;;6226779;22;20012;-94
2022/01/14 04:06:13;;;;;;;30.52;13.70;;;;;;;;;;6252144;22;20058;-95
2022/01/14 04:08:39;;;;;;;20.10;11.35;;;;;;;;;;6226918;22;20058;-93
2022/01/14 04:11:06;;;;;;;27.40;13.60;;;;;;;;;;6252689;22;20418;-94
2022/01/14 04:16:04;;;;;;;24.20;12.70;;;;;;;;;;6252399;22;20026;-94
2022/01/14 04:18:31;;;;;;;20.73;12.48;;;;;;;;;;6252604;22;20471;-94
2022/01/14 04:20:57;;;;;;;25.88;13.80;;;;;;;;;;6226565;22;20078;-92
2022/01/14 04:23:23;;;;;;;19.33;11.95;;;;;;;;;;6226181;22;20016;-94
2022/01/14 04:25:53;;;;;;;31.48;13.80;;;;;;;;;;6226021;22;20061;-93
2022/01/14 04:28:20;;;;;;;22.75;12.25;;;;;;;;;;6226371;22;20026;-94
2022/01/14 04:30:46;;;;;;;22.25;12.40;;;;;;;;;;6227660;22;20020;-92
2022/01/14 04:33:12;;;;;;;25.65;13.25;;;;;;;;;;6226281;22;20031;-94
2022/01/14 04:35:38;;;;;;;23.83;13.63;;;;;;;;;;6252364;22;20059;-93
2022/01/14 04:38:05;;;;;;;28.33;13.65;;;;;;;;;;6226629;22;20047;-93
2022/01/14 04:40:31;;;;;;;26.40;13.48;;;;;;;;;;6251265;22;20023;-93
2022/01/14 04:42:59;;;;;;;35.92;14.10;;;;;;;;;;6227683;22;20101;-92
2022/01/14 04:48:01;;;;;;;23.17;14.30;;;;;;;;;;6250646;22;20038;-92
2022/01/14 04:50:27;;;;;;;19.67;13.27;;;;;;;;;;6226527;22;20012;-92
2022/01/14 04:52:54;;;;;;;22.40;13.68;;;;;;;;;;6227231;22;20375;-93
2022/01/14 04:55:21;;;;;;;22.17;13.43;;;;;;;;;;6251682;22;20015;-93
2022/01/14 04:57:47;;;;;;;20.55;12.80;;;;;;;;;;6227437;22;20575;-93
2022/01/14 05:00:16;;;;;;;28.33;15.00;;;;;;;;;;6251744;22;20327;-93
2022/01/14 05:02:42;;;;;;;23.48;13.63;;;;;;;;;;6226161;22;20083;-93
2022/01/14 05:05:09;;;;;;;24.60;13.90;;;;;;;;;;6226519;22;20380;-92
2022/01/14 05:07:35;;;;;;;24.92;14.55;;;;;;;;;;6226163;22;20043;-93
2022/01/14 05:12:29;;;;;;;36.08;13.70;;;;;;;;;;6250734;22;20020;-89
2022/01/14 05:14:55;;;;;;;23.52;13.10;;;;;;;;;;6225321;22;20452;-88
2022/01/14 05:17:21;;;;;;;33.20;14.00;;;;;;;;;;6250415;22;20396;-88
2022/01/14 05:19:47;;;;;;;27.73;14.90;;;;;;;;;;6225177;22;20091;-88
2022/01/14 05:22:13;;;;;;;31.38;14.27;;;;;;;;;;6251919;22;20024;-89
2022/01/14 05:24:40;;;;;;;32.25;15.07;;;;;;;;;;6225187;22;20016;-88
2022/01/14 05:27:06;;;;;;;28.25;14.00;;;;;;;;;;6250381;22;20467;-88
2022/01/14 05:29:32;;;;;;;27.83;15.40;;;;;;;;;;6250119;22;20016;-88
2022/01/14 05:32:05;;;;;;;35.95;14.80;;;;;;;;;;6249300;22;20073;-88
2022/01/14 05:34:35;;;;;;;24.98;14.35;;;;;;;;;;6224673;22;20020;-88
2022/01/14 05:37:02;;;;;;;25.17;13.75;;;;;;;;;;6224702;22;20051;-88
2022/01/14 05:39:28;;;;;;;24.67;13.20;;;;;;;;;;6251044;22;20015;-88
2022/01/14 05:41:55;;;;;;;23.35;13.65;;;;;;;;;;6224951;22;20019;-88
2022/01/14 05:44:23;;;;;;;42.17;15.45;;;;;;;;;;6250473;22;20062;-88
2022/01/14 05:46:50;;;;;;;30.20;15.00;;;;;;;;;;6250635;22;20020;-88
2022/01/14 05:49:16;;;;;;;24.95;13.48;;;;;;;;;;6225543;22;20016;-88
2022/01/14 05:51:42;;;;;;;34.15;15.48;;;;;;;;;;6224969;22;20026;-88
2022/01/14 05:54:08;;;;;;;29.73;14.23;;;;;;;;;;6224376;22;20016;-88
2022/01/14 05:56:34;;;;;;;34.08;15.23;;;;;;;;;;6225825;22;20065;-88
2022/01/14 05:59:00;;;;;;;34.17;15.82;;;;;;;;;;6250253;22;20341;-89
2022/01/14 06:01:26;;;;;;;29.25;14.80;;;;;;;;;;6227209;22;20020;-89
2022/01/14 06:03:52;;;;;;;25.13;14.07;;;;;;;;;;6227095;22;20086;-87
2022/01/14 06:06:18;;;;;;;28.52;13.13;;;;;;;;;;6227001;22;20030;-89
2022/01/14 06:08:48;;;;;;;29.85;14.85;;;;;;;;;;6227171;22;20460;-88
2022/01/14 06:11:14;;;;;;;25.63;14.40;;;;;;;;;;6252488;22;20019;-89
2022/01/14 06:13:40;;;;;;;30.27;12.82;;;;;;;;;;6228045;22;20015;-88
2022/01/14 06:16:06;;;;;;;23.33;13.50;;;;;;;;;;6227417;22;20024;-88
2022/01/14 06:18:32;;;;;;;24.67;13.52;;;;;;;;;;6254585;22;20073;-88
2022/01/14 06:20:58;;;;;;;27.20;14.10;;;;;;;;;;6251921;22;20016;-88
2022/01/14 06:23:25;;;;;;;31.77;13.90;;;;;;;;;;6252189;22;20039;-88
2022/01/14 06:25:51;;;;;;;31.58;13.60;;;;;;;;;;6227159;22;20016;-88
2022/01/14 06:28:17;;;;;;;27.15;12.07;;;;;;;;;;6254266;22;20100;-88
2022/01/14 06:30:43;;;;;;;24.48;12.25;;;;;;;;;;6227183;22;20381;-88
2022/01/14 06:33:09;;;;;;;25.73;12.68;;;;;;;;;;6227578;22;20034;-88
2022/01/14 06:35:35;;;;;;;25.63;11.55;;;;;;;;;;6253577;22;20103;-88
2022/01/14 06:38:01;;;;;;;27.45;11.95;;;;;;;;;;6227703;22;20011;-89
2022/01/14 06:40:28;;;;;;;22.33;11.75;;;;;;;;;;6225891;22;20019;-88
2022/01/14 06:42:54;;;;;;;25.88;12.23;;;;;;;;;;6251784;22;20016;-88
2022/01/14 06:45:21;;;;;;;28.88;13.70;;;;;;;;;;6251773;22;20022;-88
2022/01/14 06:47:47;;;;;;;21.40;11.63;;;;;;;;;;6251767;22;20023;-88
2022/01/14 06:50:13;;;;;;;20.02;9.38;;;;;;;;;;6251707;22;20376;-88
2022/01/14 06:52:39;;;;;;;25.95;11.13;;;;;;;;;;6253464;22;20093;-92
2022/01/14 06:55:06;;;;;;;24.63;11.15;;;;;;;;;;6229895;22;20437;-92
2022/01/14 06:57:32;;;;;;;23.15;10.07;;;;;;;;;;6229866;22;20016;-91
2022/01/14 06:59:59;;;;;;;24.92;9.63;;;;;;;;;;6229128;22;20022;-92
2022/01/14 07:02:25;;;;;;;23.02;10.00;;;;;;;;;;6256675;22;20074;-91
2022/01/14 07:04:51;;;;;;;26.48;9.52;;;;;;;;;;6231448;22;20015;-91
2022/01/14 07:07:17;;;;;;;22.90;10.07;;;;;;;;;;6231826;22;20019;-92
2022/01/14 07:09:58;;;;;;;27.08;8.95;;;;;;;;;;6231120;22;20020;-90
2022/01/14 07:12:32;;;;;;;22.65;9.95;;;;;;;;;;6230729;22;20441;-91
2022/01/14 07:14:58;;;;;;;32.47;8.50;;;;;;;;;;6257312;22;20099;-91
2022/01/14 07:17:25;;;;;;;19.63;8.93;;;;;;;;;;6230653;22;20489;-93
2022/01/14 07:19:53;;;;;;;20.42;8.55;;;;;;;;;;6256155;22;20091;-91
2022/01/14 07:22:22;;;;;;;20.85;8.40;;;;;;;;;;6231231;22;20340;-94
2022/01/14 07:24:49;;;;;;;24.27;7.85;;;;;;;;;;6282739;22;20020;-91
2022/01/14 07:27:15;;;;;;;25.58;8.25;;;;;;;;;;6230727;22;20016;-91
2022/01/14 07:29:42;;;;;;;22.92;9.10;;;;;;;;;;6230412;22;20077;-93
2022/01/14 07:32:08;;;;;;;18.45;8.93;;;;;;;;;;6227783;22;20051;-93
2022/01/14 07:34:35;;;;;;;22.38;8.05;;;;;;;;;;6228232;22;20479;-89
2022/01/14 07:37:01;;;;;;;19.58;7.57;;;;;;;;;;6253178;22;20083;-92
2022/01/14 07:39:27;;;;;;;18.48;8.38;;;;;;;;;;6251106;22;20027;-91
2022/01/14 07:41:54;;;;;;;16.40;7.45;;;;;;;;;;6221893;22;20098;-93
2022/01/14 07:44:20;;;;;;;24.70;7.63;;;;;;;;;;6222908;22;20080;-92
2022/01/14 07:46:50;;;;;;;22.55;7.88;;;;;;;;;;6222694;22;20026;-92
2022/01/14 07:49:16;;;;;;;17.17;7.43;;;;;;;;;;6222906;22;20110;-92
2022/01/14 07:51:43;;;;;;;13.68;7.43;;;;;;;;;;6222344;22;20047;-93
2022/01/14 07:54:09;;;;;;;15.32;8.50;;;;;;;;;;6222361;22;20074;-94
2022/01/14 07:56:47;;;;;;;18.38;7.78;;;;;;;;;;6247838;22;20420;-94
2022/01/14 07:59:14;;;;;;;17.42;7.30;;;;;;;;;;6247448;22;20087;-92
2022/01/14 08:01:41;;;;;;;17.88;6.88;;;;;;;;;;6222179;22;20020;-92
2022/01/14 08:04:07;;;;;;;18.48;7.32;;;;;;;;;;6222723;22;20070;-91
2022/01/14 08:06:38;;;;;;;16.77;7.25;;;;;;;;;;6221227;22;20463;-90
2022/01/14 08:09:04;;;;;;;31.35;7.53;;;;;;;;;;6221454;22;20074;-89
2022/01/14 08:11:30;;;;;;;13.57;6.03;;;;;;;;;;6221187;22;20444;-90
2022/01/14 08:13:56;;;;;;;12.00;7.50;;;;;;;;;;6245584;22;20094;-89
2022/01/14 08:16:22;;;;;;;13.93;6.38;;;;;;;;;;6245009;22;20035;-88
2022/01/14 08:18:48;;;;;;;18.73;6.80;;;;;;;;;;6247604;22;20090;-87
2022/01/14 08:21:16;;;;;;;21.70;7.07;;;;;;;;;;6221691;22;20016;-89
2022/01/14 08:23:43;;;;;;;13.95;6.10;;;;;;;;;;6221486;22;20473;-90
2022/01/14 08:26:09;;;;;;;17.25;6.18;;;;;;;;;;6222037;22;20026;-89
2022/01/14 08:28:36;;;;;;;12.98;6.45;;;;;;;;;;6222033;22;20398;-88
2022/01/14 08:31:02;;;;;;;12.77;5.45;;;;;;;;;;6221688;22;20020;-90
2022/01/14 08:33:28;;;;;;;18.67;6.20;;;;;;;;;;6221878;22;20381;-88
2022/01/14 08:35:54;;;;;;;17.25;6.35;;;;;;;;;;6222207;22;20034;-89
2022/01/14 08:38:21;;;;;;;15.35;5.45;;;;;;;;;;6223525;22;20169;-89
2022/01/14 08:40:47;;;;;;;16.85;6.22;;;;;;;;;;6222684;22;20019;-90
2022/01/14 08:43:14;;;;;;;15.10;5.93;;;;;;;;;;6246679;22;20020;-91
2022/01/14 08:45:40;;;;;;;15.52;5.88;;;;;;;;;;6224155;22;20314;-90
2022/01/14 08:48:06;;;;;;;13.45;5.93;;;;;;;;;;6224671;22;20099;-91
2022/01/14 08:50:35;;;;;;;16.13;5.90;;;;;;;;;;6222059;22;20063;-89
2022/01/14 08:53:01;;;;;;;16.80;5.85;;;;;;;;;;6221171;22;20522;-90
2022/01/14 08:55:27;;;;;;;12.02;5.03;;;;;;;;;;6221949;22;20398;-91
2022/01/14 08:57:54;;;;;;;14.82;5.35;;;;;;;;;;6246167;22;20115;-89
2022/01/14 09:00:21;;;;;;;8.30;4.82;;;;;;;;;;6246968;22;20103;-90
2022/01/14 09:02:47;;;;;;;12.57;4.80;;;;;;;;;;6221330;22;20278;-91
2022/01/14 09:05:13;;;;;;;13.88;4.70;;;;;;;;;;6246461;22;20026;-90
2022/01/14 09:07:43;;;;;;;11.48;4.25;;;;;;;;;;6221313;22;20020;-89
2022/01/14 09:10:09;;;;;;;13.60;4.60;;;;;;;;;;6221490;22;20310;-90
2022/01/14 09:12:35;;;;;;;13.82;5.25;;;;;;;;;;6248589;22;20020;-89
2022/01/14 09:15:02;;;;;;;7.38;4.70;;;;;;;;;;6221853;22;20019;-88
2022/01/14 09:17:29;;;;;;;12.15;4.45;;;;;;;;;;6220026;23;20028;-88
2022/01/14 09:19:56;;;;;;;15.10;4.15;;;;;;;;;;6221249;23;20016;-91
2022/01/14 09:22:22;;;;;;;14.45;4.43;;;;;;;;;;6221827;23;20052;-88
2022/01/14 09:24:49;;;;;;;22.13;4.95;;;;;;;;;;6221673;23;20016;-90
2022/01/14 09:27:15;;;;;;;12.50;4.75;;;;;;;;;;6248750;23;20020;-90
2022/01/14 09:29:42;;;;;;;13.90;4.82;;;;;;;;;;6218716;23;20023;-89
2022/01/14 09:32:09;;;;;;;14.82;5.35;;;;;;;;;;6219598;23;20020;-88
2022/01/14 09:34:36;;;;;;;9.68;4.32;;;;;;;;;;6217763;23;20023;-92
2022/01/14 09:37:02;;;;;;;18.13;5.07;;;;;;;;;;6219463;23;20055;-91
2022/01/14 09:39:32;;;;;;;16.08;4.70;;;;;;;;;;6218879;23;20283;-88
2022/01/14 09:42:01;;;;;;;12.43;4.25;;;;;;;;;;6219029;23;20066;-92
2022/01/14 09:44:28;;;;;;;7.95;4.10;;;;;;;;;;6218061;23;20024;-89
2022/01/14 09:46:54;;;;;;;12.30;4.45;;;;;;;;;;6218345;23;20326;-89
2022/01/14 09:49:21;;;;;;;7.80;4.38;;;;;;;;;;6220219;23;20024;-89
2022/01/14 09:51:47;;;;;;;11.55;3.60;;;;;;;;;;6221938;23;20075;-90
2022/01/14 09:54:13;;;;;;;9.82;2.80;;;;;;;;;;6221477;23;20016;-90
2022/01/14 09:56:41;;;;;;;10.55;3.58;;;;;;;;;;6220567;23;20075;-90
2022/01/14 09:59:07;;;;;;;15.32;3.58;;;;;;;;;;6218759;23;20020;-90
2022/01/14 10:01:38;;;;;;;15.15;3.58;;;;;;;;;;6221128;23;20066;-91
2022/01/14 10:04:04;;;;;;;14.80;4.30;;;;;;;;;;6222355;23;20071;-90
2022/01/14 10:06:42;;;;;;;5.70;3.42;;;;;;;;;;6224167;23;20016;-92
2022/01/14 10:09:11;;;;;;;10.50;3.97;;;;;;;;;;6222917;23;20012;-91
2022/01/14 10:11:39;;;;;;;8.75;3.67;;;;;;;;;;6247996;23;20020;-92
2022/01/14 10:14:07;;;;;;;10.88;4.13;;;;;;;;;;6223667;23;20017;-92
2022/01/14 10:16:33;;;;;;;12.07;3.97;;;;;;;;;;6224044;23;20016;-91
2022/01/14 10:18:59;;;;;;;24.17;4.03;;;;;;;;;;6223705;23;20024;-91
2022/01/14 10:21:30;;;;;;;16.05;3.55;;;;;;;;;;6223493;23;20020;-91
2022/01/14 10:23:59;;;;;;;15.60;3.40;;;;;;;;;;6223924;23;20024;-90
2022/01/14 10:26:33;;;;;;;16.67;4.22;;;;;;;;;;6224046;23;20023;-89
2022/01/14 10:29:05;;;;;;;19.17;3.92;;;;;;;;;;6223568;23;20012;-90
2022/01/14 10:31:35;;;;;;;10.32;3.85;;;;;;;;;;6224722;23;20027;-91
2022/01/14 10:34:11;;;;;;;12.20;3.67;;;;;;;;;;6223754;23;20074;-91
2022/01/14 10:36:44;;;;;;;9.95;3.90;;;;;;;;;;6223107;23;20533;-90
2022/01/14 10:39:26;;;;;;;8.02;3.17;;;;;;;;;;6223790;23;20016;-91
2022/01/14 10:41:55;;;;;;;14.57;3.63;;;;;;;;;;6223909;23;20016;-91
2022/01/14 10:44:24;;;;;;;38.72;6.47;;;;;;;;;;6224489;23;20071;-91
2022/01/14 10:47:09;;;;;;;13.30;3.28;;;;;;;;;;6252132;23;20051;-90
2022/01/14 10:49:42;;;;;;;9.85;3.80;;;;;;;;;;6252556;23;20346;-91
2022/01/14 10:52:16;;;;;;;10.95;4.13;;;;;;;;;;6225356;23;20016;-91
2022/01/14 10:54:44;;;;;;;11.57;3.90;;;;;;;;;;6225870;23;20020;-90
2022/01/14 10:57:12;;;;;;;11.73;3.40;;;;;;;;;;6226118;23;20020;-91
2022/01/14 10:59:39;;;;;;;13.98;4.75;;;;;;;;;;6225871;23;20050;-90
2022/01/14 11:02:25;;;;;;;15.13;4.47;;;;;;;;;;6223958;23;20016;-90
2022/01/14 11:05:08;;;;;;;11.88;4.05;;;;;;;;;;6221199;23;20190;-89
2022/01/14 11:07:35;;;;;;;13.95;4.65;;;;;;;;;;6220454;23;20039;-89
2022/01/14 11:10:01;;;;;;;17.45;4.53;;;;;;;;;;6220877;23;20042;-91
2022/01/14 11:12:29;;;;;;;18.00;4.63;;;;;;;;;;6220073;23;20436;-89
2022/01/14 11:14:56;;;;;;;12.57;4.70;;;;;;;;;;6220050;23;20112;-88
2022/01/14 11:17:25;;;;;;;7.70;4.10;;;;;;;;;;6219121;23;20379;-89
2022/01/14 11:19:52;;;;;;;15.70;4.95;;;;;;;;;;6220263;23;20092;-89
2022/01/14 11:25:06;;;;;;;13.25;4.70;;;;;;;;;;6220397;23;20354;-89
2022/01/14 11:27:32;;;;;;;21.42;4.18;;;;;;;;;;6219514;23;20302;-90
2022/01/14 11:30:00;;;;;;;16.20;5.00;;;;;;;;;;6219469;23;20082;-89
2022/01/14 11:32:27;;;;;;;15.02;4.50;;;;;;;;;;6221611;23;20020;-89
2022/01/14 11:34:53;;;;;;;9.48;4.25;;;;;;;;;;6223029;23;20345;-88
2022/01/14 11:37:32;;;;;;;12.65;5.22;;;;;;;;;;6224213;23;20024;-89
2022/01/14 11:40:03;;;;;;;14.73;4.50;;;;;;;;;;6222549;23;20051;-88
2022/01/14 11:42:42;;;;;;;13.32;4.95;;;;;;;;;;6245954;23;20412;-89
2022/01/14 11:45:09;;;;;;;19.85;5.78;;;;;;;;;;6221285;23;20016;-89
2022/01/14 11:50:06;;;;;;;14.70;4.50;;;;;;;;;;6223354;23;20082;-90
2022/01/14 11:52:37;;;;;;;15.63;4.70;;;;;;;;;;6224053;23;20024;-91
2022/01/14 11:55:04;;;;;;;13.38;4.75;;;;;;;;;;6223580;23;20107;-88
2022/01/14 11:57:45;;;;;;;12.02;4.10;;;;;;;;;;6219214;23;20016;-89
2022/01/14 12:00:27;;;;;;;13.50;4.25;;;;;;;;;;6219615;23;20024;-89
2022/01/14 12:02:54;;;;;;;13.40;4.40;;;;;;;;;;6220696;23;20020;-88
2022/01/14 12:05:21;;;;;;;16.52;4.28;;;;;;;;;;6214373;23;20110;-89
2022/01/14 12:08:02;;;;;;;15.35;4.93;;;;;;;;;;6214315;23;20027;-88
2022/01/14 12:10:30;;;;;;;14.93;4.88;;;;;;;;;;6214197;23;20024;-89
2022/01/14 12:13:15;;;;;;;15.90;4.20;;;7.70;99.90;;;;;;6217722;23;20434;-90
2022/01/14 12:15:59;;;;;;;13.13;5.47;;;;;;;;;;6222366;23;20020;-88
2022/01/14 12:19:03;;;;;;;11.65;5.20;;;;;;;;;;6220327;23;20027;-88
2022/01/14 12:21:41;;;;;;;12.82;4.85;;;;;;;;;;6220127;23;20019;-89
2022/01/14 12:24:19;;;;;;;18.13;4.68;;;;;;;;;;6247623;22;20453;-88
2022/01/14 12:26:58;;;;;;;15.45;4.53;;;;;;;;;;6224647;22;20037;-88
2022/01/14 12:29:42;;;;;;;14.40;4.82;;;;;;;;;;6250492;22;20345;-88
2022/01/14 12:32:13;;;;;;;17.33;4.10;;;;;;;;;;6224480;22;20034;-89
2022/01/14 12:34:40;;;;;;;14.93;4.68;;;;;;;;;;6224776;22;20086;-90
2022/01/14 12:37:09;;;;;;;13.50;4.18;;;;;;;;;;6226975;22;20081;-88
2022/01/14 12:39:35;;;;;;;14.63;4.68;;;;;;;;;;6225981;22;20019;-90
2022/01/14 12:42:02;;;;;;;16.88;4.47;;;;;;;;;;6225135;22;20023;-89
2022/01/14 12:44:28;;;;;;;16.00;4.75;;;;;;;;;;6251291;22;20057;-88
2022/01/14 12:47:00;;;;;;;15.15;5.72;;;;;;;;;;6226332;22;20043;-88
2022/01/14 12:49:37;;;;;;;16.58;5.50;;;;;;;;;;6226215;22;20058;-89
2022/01/14 12:52:04;;;;;;;15.77;5.63;;;;;;;;;;6226165;22;20019;-89
2022/01/14 12:54:35;;;;;;;21.75;5.25;;;;;;;;;;6251091;22;20460;-88
2022/01/14 12:57:01;;;;;;;16.17;4.75;;;;;;;;;;6227012;22;20062;-89
2022/01/14 12:59:28;;;;;;;24.38;5.90;;;;;;;;;;6226139;22;20045;-91
2022/01/14 13:01:55;;;;;;;22.33;5.95;;;;;;;;;;6226920;22;20081;-92
2022/01/14 13:04:22;;;;;;;24.73;7.13;;;;;;;;;;6226749;22;20094;-91
2022/01/14 13:06:51;;;;;;;20.27;5.68;;;;;;;;;;6225370;22;20020;-91
2022/01/14 13:09:20;;;;;;;27.55;6.40;;;;;;;;;;6225852;22;20015;-91
2022/01/14 13:11:46;;;;;;;18.80;5.78;;;;;;;;;;6227981;22;20023;-91
2022/01/14 13:14:17;;;;;;;23.90;5.45;;;;;;;;;;6227959;22;20018;-91
2022/01/14 13:16:44;;;;;;;23.08;5.85;;;;;;;;;;6252597;22;20027;-90
2022/01/14 13:19:21;;;;;;;24.63;5.70;;;;;;;;;;6227837;22;20077;-91
2022/01/14 13:21:47;;;;;;;18.55;5.00;;;;;;;;;;6252522;22;20026;-90
2022/01/14 13:24:24;;;;;;;31.45;5.88;;;;;;;;;;6227556;22;20042;-91
2022/01/14 13:27:00;;;;;;;27.15;5.70;;;;;;;;;;6228162;22;20019;-89
2022/01/14 13:29:27;;;;;;;23.63;5.82;;;;;;;;;;6227834;22;20081;-91
2022/01/14 13:31:53;;;;;;;22.40;6.07;;;;;;;;;;6253257;22;20050;-90
2022/01/14 13:34:20;;;;;;;21.25;5.53;;;;;;;;;;6227492;22;20022;-91
2022/01/14 13:36:47;;;;;;;18.95;5.63;;;;;;;;;;6228183;22;20020;-88
2022/01/14 13:39:13;;;;;;;27.02;8.27;;;;;;;;;;6252583;22;20011;-92
2022/01/14 13:41:42;;;;;;;23.90;6.20;;;;;;;;;;6253107;22;20504;-89
2022/01/14 13:44:19;;;;;;;24.48;6.25;;;;;;;;;;6227642;22;20019;-90
2022/01/14 13:46:49;;;;;;;28.10;6.47;;;;;;;;;;6226907;22;20015;-92
2022/01/14 13:49:20;;;;;;;33.05;6.15;;;;;;;;;;6227874;22;20098;-93
2022/01/14 13:51:47;;;;;;;18.05;5.57;;;;;;;;;;6254090;22;20412;-92
2022/01/14 13:54:17;;;;;;;19.83;6.63;;;;;;;;;;6227789;22;20094;-93
2022/01/14 13:56:43;;;;;;;23.25;5.93;;;;;;;;;;6228344;22;20024;-93
2022/01/14 13:59:09;;;;;;;18.15;5.53;;;;;;;;;;6229317;22;20012;-92
2022/01/14 14:01:36;;;;;;;27.17;5.38;;;;;;;;;;6280578;22;20020;-92
2022/01/14 14:04:08;;;;;;;21.38;6.70;;;;;;;;;;6228047;22;20420;-92
2022/01/14 14:06:42;;;;;;;21.40;6.13;;;;;;;;;;6254083;22;20023;-93
2022/01/14 14:17:11;;;;;;;30.70;5.70;;;;;;;;;;6251799;22;20030;-93
2022/01/14 14:19:44;;;;;;;27.52;6.60;;;;;;;;;;6227432;22;20532;-93
2022/01/14 14:22:10;;;;;;;31.02;6.60;;;;;;;;;;6226995;22;20047;-92
2022/01/14 14:24:36;;;;;;;20.23;6.55;;;;;;;;;;6252720;22;20453;-92
2022/01/14 14:27:13;;;;;;;26.02;7.13;;;;;;;;;;6228605;22;20068;-93
2022/01/14 14:29:43;;;;;;;31.08;5.72;;;;;;;;;;6228785;22;20084;-92
2022/01/14 14:32:37;;;;;;;27.40;5.50;;;;;;;;;;6253447;22;20073;-90
2022/01/14 14:35:23;;;;;;;32.75;7.32;;;;;;;;;;6223463;22;20472;-89
2022/01/14 14:37:53;;;;;;;24.98;5.32;;;;;;;;;;6252677;22;20043;-88
2022/01/14 14:40:24;;;;;;;26.77;5.70;;;;;;;;;;6226585;22;20019;-89
2022/01/14 14:42:50;;;;;;;26.38;5.53;;;;;;;;;;6252387;22;20099;-89
2022/01/14 14:45:17;;;;;;;21.17;6.25;;;;;;;;;;6228280;22;20019;-94
2022/01/14 14:47:44;;;;;;;26.10;6.25;;;;;;;;;;6228341;22;20295;-91
2022/01/14 14:50:13;;;;;;;26.05;6.15;;;;;;;;;;6227149;22;20012;-92
2022/01/14 14:52:41;;;;;;;16.02;5.65;;;;;;;;;;6226237;22;20015;-90
2022/01/14 14:55:22;;;;;;;14.88;5.30;;;;;;;;;;6227171;22;20400;-90
2022/01/14 14:57:48;;;;;;;22.38;5.25;;;;;;;;;;6226809;22;20019;-91
2022/01/14 15:00:16;;;;;;;19.70;6.03;;;;;;;;;;6252010;22;20018;-91
2022/01/14 15:02:44;;;;;;;16.25;5.80;;;;;;;;;;6226046;22;20031;-92
2022/01/14 15:05:11;;;;;;;20.98;5.68;;;;;;;;;;6227045;22;20016;-91
2022/01/14 15:07:37;;;;;;;25.85;5.70;;;;;;;;;;6225791;22;20015;-90
2022/01/14 15:10:04;;;;;;;20.98;5.95;;;;;;;;;;6226116;22;20337;-91
2022/01/14 15:12:30;;;;;;;24.88;6.93;;;;;;;;;;6227547;22;20429;-90
2022/01/14 15:15:06;;;;;;;28.88;7.05;;;;;;;;;;6251707;22;20014;-91